Time;durP1;ratioP1;P1;durP2;ratioP2;P2;SDS_P1;SDS_P2;PMS_P1;PMS_P2;Temp;Humidity;BMP_temperature;BMP_pressure;BME280_temperature;BME280_humidity;BME280_pressure;Samples;Min_cycle;Max_cycle;Signal;HPM_P1;HPM_P2
2021/03/17 00:03:07;;;;;;;8.73;5.53;;;2.40;99.90;;;;;;8295193;28;20026;-63
2021/03/17 00:07:08;;;;;;;11.18;6.30;;;2.40;99.90;;;;;;8310391;28;20121;-63
2021/03/17 00:11:09;;;;;;;10.45;6.03;;;2.40;99.90;;;;;;8294009;28;20506;-64
2021/03/17 00:15:11;;;;;;;11.68;6.22;;;2.30;99.90;;;;;;8295515;28;20077;-63
2021/03/17 00:19:12;;;;;;;10.05;6.75;;;2.50;99.90;;;;;;8295361;28;20047;-64
2021/03/17 00:23:13;;;;;;;9.98;6.50;;;2.50;99.90;;;;;;8295112;28;20029;-63
2021/03/17 00:27:13;;;;;;;10.43;6.50;;;2.50;99.90;;;;;;8295323;28;20088;-63
2021/03/17 00:31:14;;;;;;;12.02;6.80;;;2.60;99.90;;;;;;8310397;28;20409;-63
2021/03/17 00:35:14;;;;;;;10.70;6.60;;;2.40;99.90;;;;;;8294994;28;20037;-64
2021/03/17 00:39:15;;;;;;;11.57;7.32;;;2.30;99.90;;;;;;8295238;28;20038;-65
2021/03/17 00:43:16;;;;;;;12.48;7.07;;;2.30;99.90;;;;;;8310065;28;20546;-63
2021/03/17 00:47:16;;;;;;;10.55;6.63;;;2.20;99.90;;;;;;8294846;28;20117;-64
2021/03/17 00:51:17;;;;;;;11.15;6.78;;;2.30;99.90;;;;;;8294738;28;20088;-64
2021/03/17 00:55:17;;;;;;;8.63;6.03;;;2.30;99.90;;;;;;8309688;28;20026;-64
2021/03/17 00:59:18;;;;;;;10.57;6.13;;;2.40;99.90;;;;;;8273929;28;20033;-64
2021/03/17 01:03:19;;;;;;;9.50;6.50;;;2.50;99.90;;;;;;8261657;28;20023;-63
2021/03/17 01:07:19;;;;;;;11.45;6.10;;;2.60;99.90;;;;;;8262849;28;20030;-63
2021/03/17 01:11:20;;;;;;;13.18;6.38;;;2.50;99.90;;;;;;8234125;28;20034;-64
2021/03/17 01:15:21;;;;;;;12.85;6.13;;;2.50;99.90;;;;;;8252840;28;20022;-62
2021/03/17 01:19:22;;;;;;;9.27;6.38;;;2.40;99.90;;;;;;8267734;28;20158;-63
2021/03/17 01:23:22;;;;;;;11.38;6.57;;;2.40;99.90;;;;;;8294653;28;20022;-64
2021/03/17 01:27:23;;;;;;;9.65;5.82;;;2.50;99.90;;;;;;8315891;28;20021;-64
2021/03/17 01:31:23;;;;;;;9.60;6.05;;;2.40;99.90;;;;;;8300228;28;20065;-64
2021/03/17 01:35:24;;;;;;;9.48;6.00;;;2.40;99.90;;;;;;8300104;28;20432;-63
2021/03/17 01:39:25;;;;;;;8.90;6.50;;;2.50;99.90;;;;;;8315574;28;20036;-64
2021/03/17 01:43:25;;;;;;;9.93;5.90;;;2.60;99.90;;;;;;8299973;28;20113;-63
2021/03/17 01:47:26;;;;;;;13.40;6.55;;;2.50;99.90;;;;;;8300021;28;20484;-64
2021/03/17 01:51:27;;;;;;;8.80;5.75;;;2.50;99.90;;;;;;8299872;28;20026;-64
2021/03/17 01:55:27;;;;;;;8.80;5.65;;;2.50;99.90;;;;;;8271634;28;20048;-63
2021/03/17 01:59:30;;;;;;;8.05;5.57;;;2.40;99.90;;;;;;8265801;28;20041;-63
2021/03/17 02:03:31;;;;;;;10.75;5.72;;;2.30;99.90;;;;;;8264398;28;20117;-64
2021/03/17 02:07:32;;;;;;;9.55;6.00;;;2.30;99.90;;;;;;8258796;28;20408;-63
2021/03/17 02:11:39;;;;;;;8.32;5.53;;;2.20;99.90;;;;;;8262290;28;20026;-63
2021/03/17 02:16:10;;;;;;;8.05;5.47;;;2.30;99.90;;;;;;8264773;28;20072;-63
2021/03/17 02:20:37;;;;;;;9.50;6.65;;;2.20;99.90;;;;;;8266285;28;20034;-63
2021/03/17 02:24:49;;;;;;;11.48;5.97;;;2.20;99.90;;;;;;8298810;28;20041;-63
2021/03/17 02:29:11;;;;;;;9.23;6.07;;;2.30;99.90;;;;;;8299326;28;20053;-64
2021/03/17 02:33:39;;;;;;;8.85;5.63;;;2.20;99.90;;;;;;8298314;28;20121;-63
2021/03/17 02:37:41;;;;;;;9.43;5.95;;;2.20;99.90;;;;;;8298624;28;20018;-64
2021/03/17 02:41:49;;;;;;;12.50;6.22;;;2.30;99.90;;;;;;8298368;28;20026;-64
2021/03/17 02:45:55;;;;;;;9.15;6.00;;;2.10;99.90;;;;;;8298123;28;20105;-64
2021/03/17 02:49:59;;;;;;;9.13;6.20;;;2.10;99.90;;;;;;8290299;28;20113;-64
2021/03/17 02:54:02;;;;;;;10.10;6.00;;;2.10;99.90;;;;;;8296686;28;20026;-63
2021/03/17 02:58:03;;;;;;;8.88;5.90;;;2.20;99.90;;;;;;8241961;28;20109;-63
2021/03/17 03:02:05;;;;;;;9.63;6.13;;;2.10;99.90;;;;;;8231532;28;20050;-63
2021/03/17 03:06:07;;;;;;;11.85;6.78;;;2.00;99.90;;;;;;8239559;28;20031;-64
2021/03/17 03:10:09;;;;;;;10.95;6.68;;;1.90;99.90;;;;;;8264200;28;20038;-63
2021/03/17 03:14:10;;;;;;;8.85;6.13;;;2.10;99.90;;;;;;8263549;28;20033;-63
2021/03/17 03:18:13;;;;;;;8.90;5.78;;;2.20;99.90;;;;;;8264966;28;20044;-64
2021/03/17 03:22:14;;;;;;;8.88;6.15;;;2.30;99.90;;;;;;8281582;28;20030;-64
2021/03/17 03:26:17;;;;;;;9.88;6.20;;;2.40;99.90;;;;;;8297124;28;20080;-64
2021/03/17 03:30:26;;;;;;;8.60;5.97;;;2.30;99.90;;;;;;8295818;28;20037;-64
2021/03/17 03:34:26;;;;;;;10.77;6.72;;;2.10;99.90;;;;;;8341839;22;20045;-69
2021/03/17 03:38:27;;;;;;;7.60;5.68;;;2.00;99.90;;;;;;8328920;28;20238;-69
2021/03/17 03:42:28;;;;;;;10.52;6.63;;;2.10;99.90;;;;;;8327669;28;20481;-69
2021/03/17 03:46:28;;;;;;;7.80;5.88;;;2.00;99.90;;;;;;8324962;28;20096;-70
2021/03/17 03:50:30;;;;;;;9.40;6.20;;;2.10;99.90;;;;;;8332149;28;20108;-69
2021/03/17 03:54:38;;;;;;;6.97;5.32;;;2.10;99.90;;;;;;8334021;28;20025;-71
2021/03/17 03:58:56;;;;;;;10.05;6.80;;;2.00;99.90;;;;;;8328258;28;20053;-69
2021/03/17 04:03:00;;;;;;;9.60;6.93;;;2.00;99.90;;;;;;8322958;28;20487;-69
2021/03/17 04:07:03;;;;;;;9.05;6.40;;;2.00;99.90;;;;;;8328147;28;20029;-69
2021/03/17 04:11:05;;;;;;;9.25;6.57;;;2.10;99.90;;;;;;8326835;28;20079;-70
2021/03/17 04:15:08;;;;;;;6.50;5.60;;;2.30;99.90;;;;;;8328263;28;20383;-69
2021/03/17 04:19:10;;;;;;;7.90;6.25;;;2.20;99.90;;;;;;8328538;28;20025;-69
2021/03/17 04:23:12;;;;;;;9.13;6.30;;;2.10;99.90;;;;;;8353021;28;20108;-69
2021/03/17 04:27:14;;;;;;;9.68;6.40;;;2.00;99.90;;;;;;8342823;28;20034;-69
2021/03/17 04:31:16;;;;;;;8.35;5.80;;;2.10;99.90;;;;;;8325510;28;20032;-70
2021/03/17 04:35:18;;;;;;;10.05;6.88;;;2.20;99.90;;;;;;8326557;28;20376;-70
2021/03/17 04:39:19;;;;;;;9.43;6.63;;;2.00;99.90;;;;;;8326028;28;20492;-70
2021/03/17 04:43:20;;;;;;;8.52;6.35;;;1.90;99.90;;;;;;8325990;28;20116;-69
2021/03/17 04:47:21;;;;;;;8.77;6.00;;;1.80;99.90;;;;;;8322556;28;20029;-69
2021/03/17 04:51:23;;;;;;;8.48;6.47;;;2.00;99.90;;;;;;8326489;28;20025;-69
2021/03/17 04:55:25;;;;;;;9.02;6.15;;;1.90;99.90;;;;;;8326225;28;20048;-69
2021/03/17 04:59:26;;;;;;;9.73;6.80;;;2.00;99.90;;;;;;8323942;28;20117;-68
2021/03/17 05:03:27;;;;;;;9.82;6.68;;;2.20;99.90;;;;;;8324874;28;20021;-70
2021/03/17 05:07:28;;;;;;;10.07;6.57;;;2.10;99.90;;;;;;8321992;28;20044;-70
2021/03/17 05:11:29;;;;;;;10.10;7.10;;;1.80;99.90;;;;;;8326779;28;20088;-71
2021/03/17 05:15:30;;;;;;;10.65;6.80;;;1.80;99.90;;;;;;8326997;28;20029;-69
2021/03/17 05:19:32;;;;;;;11.43;7.32;;;2.00;99.90;;;;;;8326047;28;20022;-70
2021/03/17 05:23:33;;;;;;;11.73;7.35;;;2.00;99.90;;;;;;8355189;28;20049;-70
2021/03/17 05:27:35;;;;;;;12.48;8.20;;;2.00;99.90;;;;;;8360024;28;20029;-69
2021/03/17 05:31:38;;;;;;;14.52;7.57;;;1.90;99.90;;;;;;8358731;28;20030;-70
2021/03/17 05:35:39;;;;;;;11.40;7.63;;;1.80;99.90;;;;;;8359686;28;20040;-69
2021/03/17 05:39:40;;;;;;;11.80;7.88;;;2.00;99.90;;;;;;8359742;28;20024;-70
2021/03/17 05:43:41;;;;;;;11.45;7.18;;;2.00;99.90;;;;;;8356681;28;20035;-69
2021/03/17 05:47:50;;;;;;;13.00;8.10;;;2.00;99.90;;;;;;8320754;28;20048;-71
2021/03/17 05:51:51;;;;;;;11.02;7.03;;;2.10;99.90;;;;;;8323033;28;20017;-70
2021/03/17 05:55:52;;;;;;;9.40;5.65;;;2.50;99.90;;;;;;8330894;28;20106;-70
2021/03/17 05:59:52;;;;;;;11.55;7.57;;;2.70;99.90;;;;;;8330714;28;20056;-70
2021/03/17 06:03:53;;;;;;;12.52;7.32;;;5.50;99.90;;;;;;8331659;28;20079;-70
2021/03/17 06:07:57;;;;;;;7.78;6.18;;;5.80;99.90;;;;;;8340049;28;20056;-70
2021/03/17 06:11:59;;;;;;;10.32;7.72;;;5.50;99.90;;;;;;8326900;28;20021;-69
2021/03/17 06:16:03;;;;;;;13.43;8.65;;;5.10;99.90;;;;;;8331719;28;20124;-71
2021/03/17 06:20:07;;;;;;;17.08;9.63;;;4.10;99.90;;;;;;8331842;28;20083;-69
2021/03/17 06:24:10;;;;;;;15.82;9.88;;;3.10;99.90;;;;;;8330412;28;20411;-69
2021/03/17 06:28:12;;;;;;;16.92;10.75;;;2.70;99.90;;;;;;8329292;28;20076;-69
2021/03/17 06:32:13;;;;;;;15.25;10.90;;;2.70;99.90;;;;;;8330632;28;20025;-70
2021/03/17 06:36:15;;;;;;;17.67;10.35;;;2.50;99.90;;;;;;8331084;28;20448;-69
2021/03/17 06:40:26;;;;;;;16.40;9.65;;;2.60;99.90;;;;;;8330392;28;20030;-69
2021/03/17 06:44:29;;;;;;;18.65;10.82;;;2.50;99.90;;;;;;8329004;28;20391;-69
2021/03/17 06:48:30;;;;;;;19.38;10.27;;;2.40;99.90;;;;;;8330853;28;20075;-68
2021/03/17 06:52:39;;;;;;;18.17;10.02;;;2.50;99.90;;;;;;8338111;28;20026;-69
2021/03/17 06:56:40;;;;;;;5.57;4.28;;;2.60;99.90;;;;;;8328060;28;20499;-69
2021/03/17 07:00:41;;;;;;;15.95;10.20;;;2.60;99.90;;;;;;8328654;28;20041;-69
2021/03/17 07:04:52;;;;;;;17.98;10.77;;;2.50;99.90;;;;;;8326717;28;20022;-67
2021/03/17 07:08:53;;;;;;;17.50;10.27;;;2.60;99.90;;;;;;8316525;28;20061;-68
2021/03/17 07:12:55;;;;;;;17.10;10.05;;;2.40;99.90;;;;;;8328343;28;20021;-68
2021/03/17 07:16:58;;;;;;;19.10;11.02;;;2.80;99.90;;;;;;8328276;28;20043;-69
2021/03/17 07:21:04;;;;;;;16.27;9.95;;;3.00;99.90;;;;;;8337267;28;20501;-68
2021/03/17 07:25:05;;;;;;;18.65;10.48;;;3.60;99.90;;;;;;8327800;28;20076;-68
2021/03/17 07:29:15;;;;;;;16.45;9.70;;;3.70;99.90;;;;;;8317404;28;20028;-69
2021/03/17 07:33:23;;;;;;;14.80;9.77;;;4.00;99.90;;;;;;8301500;28;20474;-69
2021/03/17 07:37:27;;;;;;;14.50;8.15;;;4.50;99.90;;;;;;8328053;28;20041;-68
2021/03/17 07:41:28;;;;;;;13.07;7.72;;;4.70;99.90;;;;;;8325887;28;20034;-68
2021/03/17 07:45:33;;;;;;;13.50;8.75;;;5.20;99.90;;;;;;8318620;28;20034;-69
2021/03/17 07:49:36;;;;;;;12.98;9.13;;;5.40;99.90;;;;;;8326308;28;20057;-68
2021/03/17 07:53:37;;;;;;;16.50;9.82;;;5.40;99.90;;;;;;8323917;28;20018;-69
2021/03/17 07:57:39;;;;;;;18.08;10.75;;;;;;;;;;8322517;28;20087;-69
2021/03/17 08:01:41;;;;;;;18.20;10.70;;;4.60;99.90;;;;;;8316355;28;20025;-69
2021/03/17 08:05:42;;;;;;;17.60;10.40;;;4.10;99.90;;;;;;8326629;28;20021;-69
2021/03/17 08:09:44;;;;;;;18.92;10.48;;;4.10;99.90;;;;;;8326046;28;20033;-70
2021/03/17 08:13:47;;;;;;;15.98;9.23;;;4.30;99.90;;;;;;8337515;28;20053;-68
2021/03/17 08:17:48;;;;;;;10.45;5.93;;;4.40;99.90;;;;;;8323593;28;20033;-70
2021/03/17 08:21:50;;;;;;;13.90;6.60;;;4.30;99.90;;;;;;8325550;28;20446;-69
2021/03/17 08:25:52;;;;;;;16.42;10.32;;;3.90;99.90;;;;;;8324289;28;20136;-68
2021/03/17 08:30:06;;;;;;;19.35;11.32;;;3.80;99.90;;;;;;8325441;28;20115;-68
2021/03/17 08:34:18;;;;;;;21.65;10.80;;;3.60;99.90;;;;;;8322647;28;20037;-68
2021/03/17 08:38:19;;;;;;;21.60;10.90;;;3.40;99.90;;;;;;8325738;28;20029;-68
2021/03/17 08:42:32;;;;;;;18.42;11.27;;;3.30;99.90;;;;;;8326538;28;20068;-69
2021/03/17 08:46:36;;;;;;;16.42;9.10;;;3.40;99.90;;;;;;8324256;28;20032;-68
2021/03/17 08:50:47;;;;;;;18.48;9.90;;;3.70;99.90;;;;;;8320511;28;20036;-68
2021/03/17 08:54:59;;;;;;;19.77;9.63;;;3.80;99.90;;;;;;8323540;28;20039;-68
2021/03/17 08:59:18;;;;;;;15.10;9.00;;;3.80;99.90;;;;;;8322000;28;20041;-68
2021/03/17 09:03:31;;;;;;;13.23;6.95;;;3.60;99.90;;;;;;8323763;28;20072;-68
2021/03/17 09:07:33;;;;;;;16.73;8.75;;;3.70;99.90;;;;;;8309578;28;20032;-68
2021/03/17 09:11:34;;;;;;;14.07;8.27;;;3.60;99.90;;;;;;8327063;28;20033;-68
2021/03/17 09:15:49;;;;;;;14.85;8.32;;;4.00;99.90;;;;;;8325816;28;20549;-69
2021/03/17 09:19:56;;;;;;;11.50;6.68;;;4.60;99.90;;;;;;8324933;28;20037;-68
2021/03/17 09:23:56;;;;;;;13.13;7.47;;;5.00;99.90;;;;;;8357804;28;20031;-70
2021/03/17 09:28:28;;;;;;;10.98;7.38;;;4.60;99.90;;;;;;8363695;28;20025;-69
2021/03/17 09:32:29;;;;;;;12.90;7.20;;;4.70;99.90;;;;;;8329069;28;20441;-68
2021/03/17 09:36:30;;;;;;;11.15;7.57;;;4.90;99.90;;;;;;8322696;28;20022;-69
2021/03/17 09:40:37;;;;;;;11.15;7.40;;;5.10;99.90;;;;;;8329522;28;20176;-69
2021/03/17 09:44:37;;;;;;;11.35;7.40;;;5.60;99.90;;;;;;8332500;28;20491;-69
2021/03/17 09:48:38;;;;;;;12.88;7.53;;;6.20;99.90;;;;;;8331652;28;20041;-69
2021/03/17 09:52:43;;;;;;;13.50;7.95;;;6.50;99.90;;;;;;8315076;28;20037;-68
2021/03/17 09:56:45;;;;;;;13.88;8.05;;;6.80;99.90;;;;;;8299299;28;20030;-70
2021/03/17 10:00:48;;;;;;;11.60;7.63;;;7.30;99.90;;;;;;8321528;28;20423;-70
2021/03/17 10:04:51;;;;;;;11.43;6.97;;;7.40;99.90;;;;;;8329345;28;20034;-69
2021/03/17 10:08:55;;;;;;;14.55;7.03;;;7.30;99.90;;;;;;8325582;28;20484;-70
2021/03/17 10:12:56;;;;;;;13.90;7.28;;;6.90;99.90;;;;;;8326963;28;20026;-69
2021/03/17 10:17:03;;;;;;;11.27;7.03;;;6.40;99.90;;;;;;8331700;28;20030;-69
2021/03/17 10:21:04;;;;;;;11.45;6.50;;;6.20;99.90;;;;;;8330041;28;20018;-69
2021/03/17 10:25:08;;;;;;;10.85;6.47;;;6.10;99.90;;;;;;8329768;28;20063;-69
2021/03/17 10:29:09;;;;;;;11.43;5.75;;;5.90;99.90;;;;;;8330451;28;20517;-69
2021/03/17 10:33:14;;;;;;;9.27;5.30;;;6.20;99.90;;;;;;8367089;22;20041;-64
2021/03/17 10:37:20;;;;;;;7.55;4.35;;;6.60;99.90;;;;;;8359300;28;20033;-65
2021/03/17 10:41:40;;;;;;;8.80;3.45;;;;;;;;;;8354980;28;20029;-64
2021/03/17 10:45:50;;;;;;;4.50;3.00;;;8.90;99.90;;;;;;8311332;28;20112;-65
2021/03/17 10:49:51;;;;;;;;;;;9.40;99.90;;;;;;8327410;28;20038;-64
2021/03/17 10:53:52;;;;;;;3.20;2.60;;;9.90;99.90;;;;;;8329667;28;20027;-64
2021/03/17 10:58:06;;;;;;;3.30;1.98;;;10.30;99.90;;;;;;8329563;28;20021;-64
2021/03/17 11:02:18;;;;;;;4.38;2.90;;;10.30;99.90;;;;;;8311975;28;20385;-64
2021/03/17 11:06:20;;;;;;;3.75;2.00;;;8.80;99.90;;;;;;8327646;28;20033;-63
2021/03/17 11:10:30;;;;;;;2.38;1.63;;;10.20;96.10;;;;;;8321209;28;20104;-65
2021/03/17 11:14:37;;;;;;;3.08;2.15;;;12.10;97.10;;;;;;8319763;28;20048;-64
2021/03/17 11:18:46;;;;;;;2.55;1.95;;;15.10;78.00;;;;;;8325889;28;20021;-65
2021/03/17 11:22:47;;;;;;;3.30;1.92;;;14.40;76.80;;;;;;8315160;28;20036;-64
2021/03/17 11:26:48;;;;;;;3.65;2.10;;;14.80;70.50;;;;;;8327344;28;20053;-64
2021/03/17 11:30:54;;;;;;;3.55;2.03;;;13.10;68.70;;;;;;8327140;28;20025;-63
2021/03/17 11:34:54;;;;;;;2.38;1.95;;;11.20;78.30;;;;;;8318278;28;20060;-64
2021/03/17 11:38:58;;;;;;;4.55;2.10;;;10.10;89.40;;;;;;8300290;28;20038;-64
2021/03/17 11:43:29;;;;;;;4.05;2.05;;;9.90;90.90;;;;;;8292478;28;20021;-64
2021/03/17 11:47:30;;;;;;;;;;;10.20;83.40;;;;;;8299968;28;20037;-64
2021/03/17 11:51:31;;;;;;;3.33;2.20;;;;;;;;;;8317293;28;19940;-64
2021/03/17 11:55:31;;;;;;;4.53;2.30;;;8.60;89.80;;;;;;8315294;28;21366;-64
2021/03/17 11:59:32;;;;;;;5.78;2.40;;;8.40;93.10;;;;;;8318828;28;20037;-64
2021/03/17 12:03:33;;;;;;;4.68;2.42;;;9.10;92.60;;;;;;8319345;28;20119;-64
2021/03/17 12:07:35;;;;;;;4.55;2.53;;;12.20;90.20;;;;;;8324531;28;20029;-64
2021/03/17 12:11:36;;;;;;;2.60;2.15;;;;;;;;;;8327354;28;20021;-65
2021/03/17 12:15:36;;;;;;;1.92;1.30;;;18.20;55.10;;;;;;8327185;28;20100;-64
2021/03/17 12:19:37;;;;;;;3.33;2.30;;;16.10;54.40;;;;;;8310548;28;20507;-64
2021/03/17 12:23:38;;;;;;;2.60;2.20;;;11.70;69.00;;;;;;8326279;28;20503;-64
2021/03/17 12:27:40;;;;;;;3.03;2.17;;;11.00;75.60;;;;;;8323236;28;20021;-64
2021/03/17 12:31:40;;;;;;;4.22;2.20;;;10.70;70.70;;;;;;8315655;28;20025;-64
2021/03/17 12:35:41;;;;;;;4.05;2.40;;;10.40;75.60;;;;;;8275701;28;20076;-64
2021/03/17 12:39:42;;;;;;;4.18;2.35;;;11.40;75.10;;;;;;8298039;28;20034;-64
2021/03/17 12:43:43;;;;;;;3.17;2.45;;;12.30;68.70;;;;;;8312368;28;20057;-64
2021/03/17 12:47:44;;;;;;;3.17;2.50;;;16.60;61.80;;;;;;8299812;28;20095;-64
2021/03/17 12:51:44;;;;;;;4.35;2.38;;;20.60;50.90;;;;;;8307497;28;20026;-64
2021/03/17 12:55:45;;;;;;;3.20;2.30;;;18.70;49.50;;;;;;8316971;28;20790;-65
2021/03/17 12:59:46;;;;;;;3.20;2.13;;;16.10;52.70;;;;;;8323517;28;20447;-64
2021/03/17 13:03:46;;;;;;;109.32;80.78;;;10.70;65.80;;;;;;8323886;28;20025;-64
2021/03/17 13:07:47;;;;;;;2.92;1.42;;;9.50;76.50;;;;;;8330337;28;20033;-63
2021/03/17 13:11:48;;;;;;;3.00;1.83;;;8.90;74.20;;;;;;8328729;28;20029;-64
2021/03/17 13:15:49;;;;;;;2.80;1.90;;;8.30;84.00;;;;;;8331184;28;20119;-65
2021/03/17 13:19:49;;;;;;;4.40;2.25;;;8.30;86.50;;;;;;8320329;28;20116;-63
2021/03/17 13:23:50;;;;;;;3.55;2.10;;;7.30;85.10;;;;;;8334190;28;20036;-64
2021/03/17 13:27:53;;;;;;;5.35;2.60;;;7.20;91.30;;;;;;8313631;28;20121;-64
2021/03/17 13:31:54;;;;;;;3.50;1.92;;;7.50;91.10;;;;;;8331055;28;20052;-64
2021/03/17 13:35:54;;;;;;;1.67;1.25;;;8.00;92.30;;;;;;8329738;28;20026;-63
2021/03/17 13:39:55;;;;;;;3.45;2.17;;;6.50;91.60;;;;;;8324722;28;20083;-64
2021/03/17 13:43:55;;;;;;;3.45;2.00;;;5.90;95.40;;;;;;8309848;28;20025;-65
2021/03/17 13:47:56;;;;;;;4.63;2.35;;;6.50;94.20;;;;;;8328739;28;20060;-65
2021/03/17 13:51:56;;;;;;;5.40;2.10;;;7.10;94.90;;;;;;8324443;28;20120;-64
2021/03/17 13:56:00;;;;;;;3.65;2.35;;;8.50;92.70;;;;;;8304436;28;20028;-64
2021/03/17 14:00:00;;;;;;;4.03;2.50;;;7.60;96.90;;;;;;8316199;28;20152;-65
2021/03/17 14:04:02;;;;;;;5.85;2.70;;;7.80;97.70;;;;;;8300897;28;20037;-64
2021/03/17 14:08:03;;;;;;;3.42;2.20;;;8.30;96.80;;;;;;8330886;28;20018;-64
2021/03/17 14:12:04;;;;;;;5.43;2.35;;;8.60;96.00;;;;;;8303259;28;20111;-64
2021/03/17 14:16:05;;;;;;;3.83;2.40;;;8.70;96.00;;;;;;8315932;28;20067;-66
2021/03/17 14:20:10;;;;;;;3.67;2.67;;;8.80;95.60;;;;;;8319468;28;20104;-65
2021/03/17 14:24:11;;;;;;;6.97;2.65;;;8.60;94.00;;;;;;8290867;28;20029;-65
2021/03/17 14:28:12;;;;;;;4.75;2.50;;;8.20;95.60;;;;;;8313489;28;20500;-65
2021/03/17 14:32:14;;;;;;;4.95;2.70;;;7.30;96.30;;;;;;8304724;28;20566;-65
2021/03/17 14:36:14;;;;;;;3.80;2.30;;;7.00;98.10;;;;;;8306052;28;20136;-65
2021/03/17 14:40:15;;;;;;;3.70;2.50;;;6.80;99.20;;;;;;8329887;28;20033;-65
2021/03/17 14:44:16;;;;;;;4.30;2.55;;;6.10;99.90;;;;;;8312630;28;20159;-65
2021/03/17 14:48:16;;;;;;;7.68;2.80;;;5.90;99.90;;;;;;8327038;28;20033;-65
2021/03/17 14:52:18;;;;;;;5.85;2.63;;;6.00;99.90;;;;;;8324184;28;20033;-65
2021/03/17 14:56:18;;;;;;;4.22;2.42;;;6.30;99.90;;;;;;8317409;28;20684;-64
2021/03/17 15:00:20;;;;;;;3.72;2.42;;;6.60;99.90;;;;;;8319814;28;20036;-64
2021/03/17 15:04:21;;;;;;;4.18;2.22;;;7.00;99.90;;;;;;8320594;28;20025;-64
2021/03/17 15:08:21;;;;;;;4.38;2.05;;;7.30;99.90;;;;;;8323822;28;20075;-65
2021/03/17 15:12:22;;;;;;;3.38;1.92;;;7.40;99.90;;;;;;8318022;28;20163;-64
2021/03/17 15:16:23;;;;;;;3.60;2.20;;;7.30;99.90;;;;;;8323806;28;20712;-64
2021/03/17 15:20:24;;;;;;;4.25;2.45;;;7.20;99.90;;;;;;8327092;28;20037;-65
2021/03/17 15:24:24;;;;;;;4.30;2.25;;;6.90;99.90;;;;;;8338171;28;20028;-65
2021/03/17 15:28:25;;;;;;;5.60;2.47;;;6.80;99.90;;;;;;8317241;28;20025;-64
2021/03/17 15:32:26;;;;;;;3.33;2.10;;;6.70;99.90;;;;;;8321424;28;20064;-65
2021/03/17 15:36:26;;;;;;;3.63;2.20;;;6.80;99.90;;;;;;8325254;28;20021;-65
2021/03/17 15:40:28;;;;;;;4.30;2.13;;;6.30;99.90;;;;;;8325118;28;20115;-65
2021/03/17 15:44:29;;;;;;;4.60;2.33;;;6.20;99.90;;;;;;8318937;28;20053;-65
2021/03/17 15:48:30;;;;;;;5.97;2.75;;;5.70;99.90;;;;;;8328316;28;20403;-65
2021/03/17 15:52:30;;;;;;;4.00;2.00;;;5.70;99.90;;;;;;8327341;28;20113;-65
2021/03/17 15:56:32;;;;;;;3.42;2.17;;;5.90;99.90;;;;;;8324800;28;20029;-65
2021/03/17 16:00:34;;;;;;;5.40;2.28;;;6.20;99.90;;;;;;8321153;28;20111;-66
2021/03/17 16:04:34;;;;;;;4.28;2.28;;;6.10;99.90;;;;;;8318609;28;20504;-65
2021/03/17 16:08:35;;;;;;;3.85;2.40;;;7.20;99.90;;;;;;8326571;28;20037;-66
2021/03/17 16:12:36;;;;;;;3.70;2.30;;;8.30;99.90;;;;;;8323775;28;20022;-66
2021/03/17 16:16:36;;;;;;;4.68;2.38;;;8.40;99.90;;;;;;8324228;28;20056;-66
2021/03/17 16:20:37;;;;;;;5.25;2.10;;;8.50;99.90;;;;;;8322523;28;20104;-66
2021/03/17 16:24:37;;;;;;;4.53;2.30;;;8.90;99.90;;;;;;8320614;28;20733;-66
2021/03/17 16:28:38;;;;;;;2.95;2.00;;;8.80;99.90;;;;;;8320044;28;20033;-66
2021/03/17 16:32:39;;;;;;;3.45;2.00;;;9.00;99.90;;;;;;8319023;28;20030;-66
2021/03/17 16:36:40;;;;;;;2.35;2.10;;;8.90;99.90;;;;;;8321161;28;20100;-66
2021/03/17 16:40:41;;;;;;;4.05;2.22;;;8.90;99.90;;;;;;8339215;23;20050;-69
2021/03/17 16:44:42;;;;;;;3.90;2.10;;;8.80;99.90;;;;;;8288900;28;20029;-68
2021/03/17 16:48:43;;;;;;;5.78;2.08;;;8.80;99.90;;;;;;8283212;28;20080;-70
2021/03/17 16:52:44;;;;;;;4.85;2.17;;;8.00;99.90;;;;;;8277047;28;20026;-70
2021/03/17 16:56:45;;;;;;;4.85;2.20;;;6.40;99.90;;;;;;8289534;28;20598;-69
2021/03/17 17:00:45;;;;;;;3.45;1.75;;;5.90;99.90;;;;;;8288282;28;20488;-70
2021/03/17 17:04:46;;;;;;;3.80;1.67;;;6.20;99.90;;;;;;8290686;28;20057;-70
2021/03/17 17:08:48;;;;;;;2.92;1.50;;;7.00;99.90;;;;;;8287604;28;20037;-70
2021/03/17 17:12:48;;;;;;;2.63;1.35;;;7.60;99.90;;;;;;8293006;28;20019;-70
2021/03/17 17:16:49;;;;;;;2.03;1.00;;;7.40;99.90;;;;;;8291119;28;20030;-70
2021/03/17 17:20:49;;;;;;;3.80;1.13;;;8.10;99.90;;;;;;8293488;28;20058;-70
2021/03/17 17:24:50;;;;;;;1.95;1.20;;;8.40;99.90;;;;;;8293781;28;20037;-70
2021/03/17 17:28:51;;;;;;;3.17;1.83;;;;;;;;;;8279711;28;20037;-69
2021/03/17 17:32:55;;;;;;;2.55;1.60;;;7.80;99.90;;;;;;8274744;28;20034;-69
2021/03/17 17:36:56;;;;;;;5.03;1.15;;;6.70;99.90;;;;;;8279534;28;21451;-69
2021/03/17 17:40:57;;;;;;;3.42;1.52;;;5.90;99.90;;;;;;8277863;28;20165;-69
2021/03/17 17:44:57;;;;;;;3.70;2.55;;;5.20;99.90;;;;;;8283520;28;20026;-68
2021/03/17 17:48:58;;;;;;;4.65;2.30;;;4.40;99.90;;;;;;8283744;28;20103;-69
2021/03/17 17:52:59;;;;;;;4.22;2.83;;;3.90;99.90;;;;;;8297241;28;20037;-69
2021/03/17 17:57:00;;;;;;;5.65;2.40;;;3.50;99.90;;;;;;8307013;28;20030;-68
2021/03/17 18:01:01;;;;;;;4.20;2.17;;;3.30;99.90;;;;;;8288428;28;20080;-69
2021/03/17 18:05:02;;;;;;;4.50;2.08;;;3.30;99.90;;;;;;8285927;28;20795;-69
2021/03/17 18:09:03;;;;;;;3.40;2.20;;;3.30;99.90;;;;;;8281656;28;20034;-69
2021/03/17 18:13:05;;;;;;;3.05;2.20;;;3.30;99.90;;;;;;8285642;28;20048;-70
2021/03/17 18:17:05;;;;;;;5.35;2.47;;;3.30;99.90;;;;;;8292537;28;20026;-70
2021/03/17 18:21:06;;;;;;;6.95;3.70;;;3.20;99.90;;;;;;8287892;28;20049;-70
2021/03/17 18:25:09;;;;;;;5.78;2.83;;;3.00;99.90;;;;;;8288164;28;20080;-71
2021/03/17 18:29:10;;;;;;;6.20;2.50;;;2.70;99.90;;;;;;8290839;28;20447;-70
2021/03/17 18:33:11;;;;;;;4.47;2.25;;;2.50;99.90;;;;;;8292311;28;20129;-70
2021/03/17 18:37:12;;;;;;;4.53;2.60;;;2.40;99.90;;;;;;8293682;28;20018;-69
2021/03/17 18:41:13;;;;;;;5.43;3.30;;;2.30;99.90;;;;;;8291400;28;20034;-69
2021/03/17 18:45:17;;;;;;;5.95;3.85;;;2.40;99.90;;;;;;8291763;28;20088;-70
2021/03/17 18:49:18;;;;;;;4.53;3.30;;;2.30;99.90;;;;;;8291322;28;20083;-70
2021/03/17 18:53:19;;;;;;;6.68;3.50;;;2.30;99.90;;;;;;8283468;28;20030;-70
2021/03/17 18:57:20;;;;;;;7.35;3.30;;;2.30;99.90;;;;;;8284248;28;20033;-70
2021/03/17 19:01:21;;;;;;;5.88;4.22;;;2.40;99.90;;;;;;8290231;28;20030;-68
2021/03/17 19:05:21;;;;;;;4.72;2.90;;;2.30;99.90;;;;;;8292217;28;20026;-68
2021/03/17 19:09:22;;;;;;;4.90;2.47;;;2.20;99.90;;;;;;8290405;28;20033;-69
2021/03/17 19:13:23;;;;;;;4.63;2.90;;;2.10;99.90;;;;;;8291827;28;20149;-69
2021/03/17 19:17:24;;;;;;;3.28;2.45;;;2.00;99.90;;;;;;8291737;28;20022;-71
2021/03/17 19:21:25;;;;;;;6.30;2.63;;;1.90;99.90;;;;;;8289278;28;20030;-68
2021/03/17 19:25:28;;;;;;;4.47;3.10;;;1.80;99.90;;;;;;8289584;28;20278;-71
2021/03/17 19:29:28;;;;;;;6.95;2.85;;;1.80;99.90;;;;;;8275676;28;20038;-71
2021/03/17 19:33:30;;;;;;;4.75;2.83;;;1.90;99.90;;;;;;8273609;28;20745;-70
2021/03/17 19:37:30;;;;;;;3.92;2.65;;;1.80;99.90;;;;;;8271740;28;20442;-70
2021/03/17 19:41:33;;;;;;;3.85;2.65;;;1.80;99.90;;;;;;8273097;28;20091;-70
2021/03/17 19:45:34;;;;;;;3.95;2.63;;;1.80;99.90;;;;;;8272329;28;20034;-69
2021/03/17 19:49:35;;;;;;;4.03;2.53;;;1.80;99.90;;;;;;8278510;28;20025;-70
2021/03/17 19:53:36;;;;;;;4.22;2.55;;;1.60;99.90;;;;;;8307231;28;20076;-70
2021/03/17 19:57:39;;;;;;;5.63;3.30;;;1.60;99.90;;;;;;8282859;28;20034;-72
2021/03/17 20:01:40;;;;;;;4.45;2.72;;;1.60;99.90;;;;;;8280216;28;20037;-67
2021/03/17 20:05:41;;;;;;;3.47;2.70;;;1.60;99.90;;;;;;8270330;28;20827;-70
2021/03/17 20:09:42;;;;;;;5.57;3.05;;;1.50;99.90;;;;;;8273589;28;20037;-70
2021/03/17 20:13:43;;;;;;;5.60;3.38;;;1.60;99.90;;;;;;8271929;28;20022;-66
2021/03/17 20:17:44;;;;;;;6.38;3.33;;;1.60;99.90;;;;;;8271019;28;20045;-68
2021/03/17 20:21:45;;;;;;;6.35;3.53;;;1.60;99.90;;;;;;8273870;28;20022;-67
2021/03/17 20:25:46;;;;;;;6.45;4.03;;;1.50;99.90;;;;;;8280451;28;20527;-67
2021/03/17 20:29:47;;;;;;;4.70;3.42;;;1.30;99.90;;;;;;8260796;28;20038;-68
2021/03/17 20:33:48;;;;;;;5.40;4.15;;;1.20;99.90;;;;;;8280650;28;20499;-68
2021/03/17 20:37:49;;;;;;;5.05;3.63;;;1.10;99.90;;;;;;8265414;28;20066;-67
2021/03/17 20:41:50;;;;;;;8.02;4.38;;;1.10;99.90;;;;;;8263496;28;20034;-68
2021/03/17 20:45:51;;;;;;;6.78;4.60;;;0.90;99.90;;;;;;8267537;28;20428;-68
2021/03/17 20:49:51;;;;;;;7.45;4.65;;;1.00;99.90;;;;;;8296955;28;20030;-67
2021/03/17 20:53:52;;;;;;;8.20;5.70;;;1.00;99.90;;;;;;8272183;28;20026;-66
2021/03/17 20:57:54;;;;;;;10.75;6.18;;;1.10;99.90;;;;;;8280533;28;20415;-66
2021/03/17 21:01:55;;;;;;;8.85;6.22;;;1.10;99.90;;;;;;8282792;28;20117;-68
2021/03/17 21:05:55;;;;;;;12.25;7.57;;;1.10;99.90;;;;;;8275400;28;20041;-68
2021/03/17 21:09:56;;;;;;;10.20;5.95;;;1.10;99.90;;;;;;8274705;28;20061;-66
2021/03/17 21:13:58;;;;;;;9.02;5.50;;;1.10;99.90;;;;;;8285383;28;20620;-67